map of BEF home
BEF - Airport
Location
City:  Bluefields, Atlántico Sur, Nicaragua
ICAO:MNBL
IATA:BEF

Details
Type:Airport (Aerodrome, Airfield)
Latitude:11°59'27"N (11.990961)
Longitude:83°46'27"W (-83.774085)
Datum:WGS 1984
Elevation:41 ft (12 m)
Variation:2.32°W (WMM2015 magnetic declination)
-0.14° annual change
Runways:1
Longest:6625 × 98 ft (2019 × 30 m), paved

Time
Time Zone:UTC-6
Local Time:

Weather
METAR:MNBL 141200Z 34004KT 9999 OVC017 21/19 Q1014

Related Locations
Nearby:
Farthest:CCK: 12411 mi / 19974 km
West Island (Pulau Panjang) [Cocos (Keeling) Islands], CC

Find:

   beyond  
but within

Other Information
Maps:
NOTAMs:
Links:
Sources:

  
flag of Nicaragua
flag of Atlántico Sur
  

Sectional Chart

Flight Planning
at skyvector.com

Satellite Image

Google Maps Satellite view

 

Copyright © 2004-2017 Karl L. Swartz. All rights reserved.
The Great Circle Mapper name and logo are trademarks of the Great Circle Mapper.
All other trademarks mentioned herein belong to their respective owners.
Please see credits for attibutions and further copyright information.

  Follow gcmap on Facebook Follow gcmap on Twitter Follow gcmap on Google+ GCmap on LinkedIn

hCard Microformat

Geo Microformat